Helene — V2BK5 — position and weather

sailwx.info

Track history (hours):
 
Tides and Currents Weather Stations Pressure Air Temp Water Temp Dewpoint Dewpoint Depression Visibility Wind Speed Wind Dir Waves Ship Positions

Helene

Last reported at 2014-Sep-19 20:28 UTC. Time now 2014-Sep-24 00:26 UTC.
Position N 35°58' W 005°34'.

Length 139 m; draft 8.7 m.

Type: Ship. MMSI: 304846000.

Date/timePositionNaut miles runAvg speedWind from/ knotsBaromVisibWave heightAir tempDewpointWater temp
2014-Sep-19 20:28N 35°58' W 005°34'9 9.4
2014-Sep-19 19:33N 35°58' W 005°23'4 3.8
2014-Sep-19 18:30N 35°55' W 005°21'0 0.1
2014-Sep-19 17:33N 35°55' W 005°21'0 0.0
2014-Sep-19 16:33N 35°55' W 005°21'1 1.0
2014-Sep-19 15:33N 35°56' W 005°20'6 0.6
2014-Sep-19 05:34N 36°01' W 005°17'21410.5
2014-Sep-18 09:08N 37°12' W 001°05'711.8
2014-Sep-18 08:33N 37°17' W 000°58'1312.3
2014-Sep-18 07:32N 37°25' W 000°46'1212.2
2014-Sep-18 06:33N 37°33' W 000°35'1312.6
2014-Sep-18 05:33N 37°43' W 000°26'1312.8
2014-Sep-18 04:33N 37°54' W 000°16'  
2014-Sep-15 13:33N 39°38' W 000°10'2 2.0
2014-Sep-15 12:33N 39°37' W 000°08'2 2.1
2014-Sep-15 11:33N 39°35' W 000°08'5 0.2
2014-Sep-14 02:26N 39°39' W 000°13'6 6.2
2014-Sep-14 01:31N 39°36' W 000°07'6314.9
2014-Sep-13 21:16N 38°37' E 000°24'1315.8
2014-Sep-13 20:27N 38°27' E 000°15'1416.0
2014-Sep-13 19:33N 38°15' E 000°04'1615.8
2014-Sep-13 18:33N 38°02' W 000°07'1615.6
2014-Sep-13 17:33N 37°49' W 000°18'1615.8
2014-Sep-13 16:33N 37°36' W 000°29'1515.4
2014-Sep-13 15:33N 37°25' W 000°43'1615.4
2014-Sep-13 14:31N 37°14' W 000°58'1515.6
2014-Sep-13 13:32N 37°04' W 001°12'3315.8
2014-Sep-13 11:27N 36°42' W 001°43'175 4.1
2014-Sep-11 17:04N 36°08' W 005°16'9 0.5
2014-Sep-11 00:26N 36°01' W 005°23'  
Track history (hours):
 
Tides and Currents Weather Stations Pressure Air Temp Water Temp Dewpoint Dewpoint Depression Visibility Wind Speed Wind Dir Waves Ship Positions

Helene

Last reported at 2014-Sep-19 20:28 UTC. Time now 2014-Sep-24 00:26 UTC.
Position N 35°58' W 005°34'.

Length 139 m; draft 8.7 m.

Type: Ship. MMSI: 304846000.

Date/timePositionNaut miles runAvg speedWind from/ knotsBaromVisibWave heightAir tempDewpointWater temp
2014-Sep-19 20:28N 35°58' W 005°34'9 9.4
2014-Sep-19 19:33N 35°58' W 005°23'4 3.8
2014-Sep-19 18:30N 35°55' W 005°21'0 0.1
2014-Sep-19 17:33N 35°55' W 005°21'0 0.0
2014-Sep-19 16:33N 35°55' W 005°21'1 1.0
2014-Sep-19 15:33N 35°56' W 005°20'6 0.6
2014-Sep-19 05:34N 36°01' W 005°17'21410.5
2014-Sep-18 09:08N 37°12' W 001°05'711.8
2014-Sep-18 08:33N 37°17' W 000°58'1312.3
2014-Sep-18 07:32N 37°25' W 000°46'1212.2
2014-Sep-18 06:33N 37°33' W 000°35'1312.6
2014-Sep-18 05:33N 37°43' W 000°26'1312.8
2014-Sep-18 04:33N 37°54' W 000°16'  
2014-Sep-15 13:33N 39°38' W 000°10'2 2.0
2014-Sep-15 12:33N 39°37' W 000°08'2 2.1
2014-Sep-15 11:33N 39°35' W 000°08'5 0.2
2014-Sep-14 02:26N 39°39' W 000°13'6 6.2
2014-Sep-14 01:31N 39°36' W 000°07'6314.9
2014-Sep-13 21:16N 38°37' E 000°24'1315.8
2014-Sep-13 20:27N 38°27' E 000°15'1416.0
2014-Sep-13 19:33N 38°15' E 000°04'1615.8
2014-Sep-13 18:33N 38°02' W 000°07'1615.6
2014-Sep-13 17:33N 37°49' W 000°18'1615.8
2014-Sep-13 16:33N 37°36' W 000°29'1515.4
2014-Sep-13 15:33N 37°25' W 000°43'1615.4
2014-Sep-13 14:31N 37°14' W 000°58'1515.6
2014-Sep-13 13:32N 37°04' W 001°12'3315.8
2014-Sep-13 11:27N 36°42' W 001°43'175 4.1
2014-Sep-11 17:04N 36°08' W 005°16'9 0.5
2014-Sep-11 00:26N 36°01' W 005°23'  

Dump ship's entire track history